This is the latest recevied weather packets stored in our database for station/object DG4CB-13. If no packets are shown the sender has not sent any weather packets the latest 10 day(s).
| Time | Temp. | Humidity | Pressure | Rain* | Wind** | Luminosity | Snow |
|---|---|---|---|---|---|---|---|
| 1777910999 | 16.67° C | 71% | 1011.6 hPa | - | - | - | - |
| 1777910399 | 16.67° C | 70% | 1011.7 hPa | - | - | - | - |
| 1777909799 | 17.22° C | 69% | 1011.9 hPa | - | - | - | - |
| 1777909200 | 17.22° C | 70% | 1011.7 hPa | - | - | - | - |
| 1777908600 | 17.22° C | 68% | 1011.7 hPa | - | - | - | - |
| 1777908000 | 17.22° C | 69% | 1011.6 hPa | - | - | - | - |
| 1777907400 | 17.78° C | 67% | 1011.6 hPa | - | - | - | - |
| 1777906800 | 18.33° C | 64% | 1011.6 hPa | - | - | - | - |
| 1777906199 | 20° C | 56% | 1011.6 hPa | - | - | - | - |
| 1777905599 | 22.22° C | 45% | 1011.2 hPa | - | - | - | - |
| 1777904999 | 22.78° C | 41% | 1010.9 hPa | - | - | - | - |
| 1777904399 | 23.33° C | 41% | 1010.8 hPa | - | - | - | - |
| 1777903799 | 23.89° C | 41% | 1010.7 hPa | - | - | - | - |
| 1777903199 | 23.89° C | 41% | 1010.7 hPa | - | - | - | - |
| 1777902599 | 23.89° C | 41% | 1010.7 hPa | - | - | - | - |
| 1777901999 | 24.44° C | 40% | 1010.9 hPa | - | - | - | - |
| 1777901399 | 24.44° C | 41% | 1010.9 hPa | - | - | - | - |
| 1777900799 | 24.44° C | 40% | 1011 hPa | - | - | - | - |
| 1777900199 | 24.44° C | 41% | 1011.2 hPa | - | - | - | - |
| 1777899599 | 24.44° C | 41% | 1011.1 hPa | - | - | - | - |
| 1777898999 | 24.44° C | 40% | 1011.1 hPa | - | - | - | - |
| 1777898399 | 24.44° C | 42% | 1011.1 hPa | - | - | - | - |
| 1777897800 | 24.44° C | 42% | 1011.2 hPa | - | - | - | - |
| 1777897199 | 23.89° C | 42% | 1011.3 hPa | - | - | - | - |
| 1777896000 | 23.89° C | 41% | 1011.4 hPa | - | - | - | - |
* Rain since midnight (hover to see other rain measurements)
** Current wind speed in m/s (hover to see current wind gust speed)